Time;durP1;ratioP1;P1;durP2;ratioP2;P2;SDS_P1;SDS_P2;PMS_P1;PMS_P2;Temp;Humidity;BMP_temperature;BMP_pressure;BME280_temperature;BME280_humidity;BME280_pressure;Samples;Min_cycle;Max_cycle;Signal;HPM_P1;HPM_P2
2021/05/23 00:02:15;;;;;;;1.60;1.50;;;13.80;99.90;;;;;;5092951;28;20200;-71
2021/05/23 00:04:41;;;;;;;1.55;1.45;;;13.70;99.90;;;;;;5089687;28;20198;-71
2021/05/23 00:07:09;;;;;;;1.13;1.02;;;13.70;99.90;;;;;;5089024;28;20203;-71
2021/05/23 00:09:35;;;;;;;1.75;1.35;;;13.70;99.90;;;;;;5089211;28;20197;-71
2021/05/23 00:12:01;;;;;;;2.20;1.45;;;13.80;99.90;;;;;;5090979;28;20657;-71
2021/05/23 00:14:27;;;;;;;2.15;1.85;;;13.70;99.90;;;;;;5090715;28;20201;-71
2021/05/23 00:16:54;;;;;;;1.90;1.40;;;13.80;99.90;;;;;;5091750;28;20201;-72
2021/05/23 00:19:20;;;;;;;1.38;1.27;;;13.70;99.90;;;;;;5107422;28;20215;-71
2021/05/23 00:21:47;;;;;;;2.00;1.55;;;13.80;99.90;;;;;;5101216;28;20201;-71
2021/05/23 00:24:13;;;;;;;1.80;1.40;;;13.70;99.90;;;;;;5095992;27;20194;-71
2021/05/23 00:26:39;;;;;;;2.35;1.35;;;13.70;99.90;;;;;;5095097;28;20193;-70
2021/05/23 00:29:05;;;;;;;1.95;1.40;;;13.80;99.90;;;;;;5095874;27;20263;-71
2021/05/23 00:31:32;;;;;;;1.50;1.40;;;13.70;99.90;;;;;;5095535;27;20614;-71
2021/05/23 00:33:59;;;;;;;1.70;1.35;;;13.70;99.90;;;;;;5092373;27;20216;-71
2021/05/23 00:36:26;;;;;;;1.65;1.30;;;13.70;99.90;;;;;;5096970;27;20211;-71
2021/05/23 00:38:53;;;;;;;1.83;1.08;;;13.70;99.90;;;;;;5095868;27;20221;-71
2021/05/23 00:41:19;;;;;;;2.75;1.52;;;13.70;99.90;;;;;;5094446;27;20194;-71
2021/05/23 00:43:46;;;;;;;3.63;1.75;;;13.70;99.90;;;;;;5091772;27;20192;-72
2021/05/23 00:46:12;;;;;;;1.95;1.38;;;13.70;99.90;;;;;;5091034;27;20334;-72
2021/05/23 00:48:38;;;;;;;1.35;1.15;;;13.70;99.90;;;;;;5105592;27;20192;-71
2021/05/23 00:51:05;;;;;;;2.03;1.88;;;13.70;99.90;;;;;;5112886;28;20709;-72
2021/05/23 00:53:32;;;;;;;1.38;1.25;;;13.70;99.90;;;;;;5107468;27;20193;-72
2021/05/23 00:55:59;;;;;;;2.40;1.45;;;13.70;99.90;;;;;;5094731;27;20197;-72
2021/05/23 00:58:25;;;;;;;2.92;1.70;;;13.70;99.90;;;;;;5091245;27;20802;-72
2021/05/23 01:01:11;;;;;;;1.58;1.48;;;13.70;99.90;;;;;;5094556;27;20557;-72
2021/05/23 01:03:58;;;;;;;1.83;1.27;;;13.70;99.90;;;;;;5094698;27;20197;-71
2021/05/23 01:06:27;;;;;;;4.13;1.55;;;13.70;99.90;;;;;;5084608;27;20193;-72
2021/05/23 01:08:54;;;;;;;2.22;1.60;;;13.70;99.90;;;;;;5092370;27;20193;-72
2021/05/23 01:12:05;;;;;;;1.67;1.58;;;13.70;99.90;;;;;;5095301;27;20233;-72
2021/05/23 01:14:44;;;;;;;2.45;1.50;;;13.60;99.90;;;;;;5091762;27;20208;-72
2021/05/23 01:17:13;;;;;;;1.98;1.60;;;13.60;99.90;;;;;;5098643;27;20593;-72
2021/05/23 01:19:52;;;;;;;1.35;1.20;;;13.70;99.90;;;;;;5110521;28;20217;-72
2021/05/23 01:22:28;;;;;;;4.80;1.50;;;13.60;99.90;;;;;;5112512;28;20212;-71
2021/05/23 01:25:09;;;;;;;2.60;1.40;;;13.60;99.90;;;;;;5097396;27;20290;-71
2021/05/23 01:27:37;;;;;;;2.60;1.40;;;13.60;99.90;;;;;;5101097;28;20275;-71
2021/05/23 01:30:06;;;;;;;2.42;1.40;;;13.60;99.90;;;;;;5094439;27;20217;-71
2021/05/23 01:32:32;;;;;;;2.28;1.17;;;13.60;99.90;;;;;;5093268;27;20294;-71
2021/05/23 01:35:00;;;;;;;1.50;1.13;;;13.60;99.90;;;;;;5093158;27;20228;-71
2021/05/23 01:37:26;;;;;;;2.00;1.40;;;13.60;99.90;;;;;;5091445;27;20197;-71
2021/05/23 01:39:53;;;;;;;1.92;1.40;;;13.60;99.90;;;;;;5095145;27;20225;-71
2021/05/23 01:42:21;;;;;;;1.80;1.33;;;13.60;99.90;;;;;;5095947;27;20197;-71
2021/05/23 01:44:48;;;;;;;1.20;1.00;;;13.50;99.90;;;;;;5090205;27;20607;-70
2021/05/23 01:47:14;;;;;;;3.15;1.30;;;13.60;99.90;;;;;;5092588;28;20564;-71
2021/05/23 01:49:40;;;;;;;1.95;1.17;;;13.60;99.90;;;;;;5108681;28;20193;-71
2021/05/23 01:52:06;;;;;;;1.70;1.30;;;13.60;99.90;;;;;;5113169;28;20188;-71
2021/05/23 01:54:32;;;;;;;3.30;1.42;;;13.60;99.90;;;;;;5101097;27;20206;-72
2021/05/23 01:56:59;;;;;;;1.45;1.30;;;13.60;99.90;;;;;;5095347;27;20206;-72
2021/05/23 01:59:26;;;;;;;2.00;1.25;;;13.50;99.90;;;;;;5094412;27;20228;-71
2021/05/23 02:01:52;;;;;;;1.50;1.20;;;13.50;99.90;;;;;;5092103;27;20194;-71
2021/05/23 02:04:18;;;;;;;1.65;1.40;;;13.50;99.90;;;;;;5092183;27;20269;-71
2021/05/23 02:06:44;;;;;;;2.70;1.23;;;13.50;99.90;;;;;;5094541;27;20201;-70
2021/05/23 02:09:11;;;;;;;1.85;1.10;;;13.50;99.90;;;;;;5091895;27;20213;-71
2021/05/23 02:11:37;;;;;;;1.30;1.20;;;13.50;99.90;;;;;;5096141;27;20204;-71
2021/05/23 02:14:04;;;;;;;2.35;1.67;;;13.50;99.90;;;;;;5091590;27;20203;-72
2021/05/23 02:16:33;;;;;;;2.17;1.10;;;13.50;99.90;;;;;;5092961;27;20212;-71
2021/05/23 02:18:59;;;;;;;1.30;1.10;;;13.50;99.90;;;;;;5101654;27;20209;-71
2021/05/23 02:21:25;;;;;;;6.30;2.35;;;13.60;99.90;;;;;;5105247;28;20204;-72
2021/05/23 02:23:54;;;;;;;1.60;1.30;;;13.50;99.90;;;;;;5104907;28;20197;-71
2021/05/23 02:26:20;;;;;;;1.52;1.00;;;13.50;99.90;;;;;;5091331;27;20204;-71
2021/05/23 02:28:47;;;;;;;1.63;1.52;;;13.50;99.90;;;;;;5096626;27;20205;-71
2021/05/23 02:31:13;;;;;;;4.28;1.40;;;13.50;99.90;;;;;;5089895;27;20197;-72
2021/05/23 02:33:40;;;;;;;3.25;1.50;;;13.50;99.90;;;;;;5089650;27;20205;-72
2021/05/23 02:36:06;;;;;;;2.88;2.22;;;13.50;99.90;;;;;;5094477;27;20206;-72
2021/05/23 02:38:33;;;;;;;1.65;1.33;;;13.50;99.90;;;;;;5091803;27;20871;-71
2021/05/23 02:40:59;;;;;;;3.70;1.38;;;13.40;99.90;;;;;;5092375;27;20190;-71
2021/05/23 02:43:25;;;;;;;1.30;1.20;;;13.40;99.90;;;;;;5090895;28;20592;-71
2021/05/23 02:45:52;;;;;;;1.63;1.42;;;13.50;99.90;;;;;;5091223;27;20207;-71
2021/05/23 02:48:18;;;;;;;1.63;1.50;;;13.40;99.90;;;;;;5093950;27;20196;-71
2021/05/23 02:50:47;;;;;;;1.90;1.80;;;13.40;99.90;;;;;;5104322;28;20212;-72
2021/05/23 02:53:13;;;;;;;1.92;1.40;;;13.40;99.90;;;;;;5091506;28;20202;-70
2021/05/23 02:55:42;;;;;;;3.15;1.90;;;13.40;99.90;;;;;;5095637;28;20193;-70
2021/05/23 02:58:10;;;;;;;2.70;1.92;;;13.40;99.90;;;;;;5084215;27;20233;-70
2021/05/23 03:00:36;;;;;;;1.88;1.60;;;13.40;99.90;;;;;;5090208;27;20425;-70
2021/05/23 03:03:04;;;;;;;2.55;2.10;;;13.40;99.90;;;;;;5090974;27;20205;-70
2021/05/23 03:05:30;;;;;;;2.20;2.00;;;13.40;99.90;;;;;;5090476;27;20193;-70
2021/05/23 03:07:58;;;;;;;2.22;1.90;;;13.40;99.90;;;;;;5090206;27;20201;-70
2021/05/23 03:10:27;;;;;;;2.70;2.50;;;13.40;99.90;;;;;;5090542;28;20203;-70
2021/05/23 03:12:54;;;;;;;2.38;2.15;;;13.30;99.90;;;;;;5092801;27;20201;-70
2021/05/23 03:15:23;;;;;;;3.22;2.83;;;13.40;99.90;;;;;;5092939;28;20208;-71
2021/05/23 03:17:49;;;;;;;3.58;2.88;;;13.40;99.90;;;;;;5096896;27;20200;-71
2021/05/23 03:20:17;;;;;;;4.57;2.63;;;13.40;99.90;;;;;;5109475;28;20228;-71
2021/05/23 03:22:46;;;;;;;3.38;3.10;;;13.40;99.90;;;;;;5099376;28;20193;-70
2021/05/23 03:25:15;;;;;;;4.00;3.67;;;13.40;99.90;;;;;;5093149;27;20200;-70
2021/05/23 03:27:42;;;;;;;3.97;3.67;;;13.40;99.90;;;;;;5099060;27;20571;-70
2021/05/23 03:30:11;;;;;;;3.83;3.35;;;13.40;99.90;;;;;;5088073;28;20610;-71
2021/05/23 03:32:38;;;;;;;5.85;4.90;;;13.40;99.90;;;;;;5093906;27;20197;-70
2021/05/23 03:35:05;;;;;;;5.57;4.57;;;13.40;99.90;;;;;;5092814;27;20196;-70
2021/05/23 03:37:32;;;;;;;3.92;3.63;;;13.30;99.90;;;;;;5095068;27;20286;-70
2021/05/23 03:39:58;;;;;;;3.95;3.55;;;13.40;99.90;;;;;;5088997;27;20705;-71
2021/05/23 03:42:25;;;;;;;4.65;4.25;;;13.40;99.90;;;;;;5088978;28;20553;-73
2021/05/23 03:44:51;;;;;;;4.00;3.60;;;13.30;99.90;;;;;;5090791;27;20254;-73
2021/05/23 03:47:17;;;;;;;4.15;3.75;;;13.30;99.90;;;;;;5089469;28;20204;-71
2021/05/23 03:49:44;;;;;;;4.38;3.97;;;13.30;99.90;;;;;;5100928;28;20185;-70
2021/05/23 03:52:11;;;;;;;4.03;3.63;;;13.30;99.90;;;;;;5110413;28;20204;-70
2021/05/23 03:54:37;;;;;;;6.63;3.85;;;13.30;99.90;;;;;;5092623;28;20201;-70
2021/05/23 03:57:04;;;;;;;3.72;3.28;;;13.30;99.90;;;;;;5094853;28;20197;-70
2021/05/23 03:59:31;;;;;;;4.40;4.10;;;13.30;99.90;;;;;;5089401;28;20236;-70
2021/05/23 04:01:57;;;;;;;3.80;3.10;;;13.30;99.90;;;;;;5090806;28;20193;-71
2021/05/23 04:04:24;;;;;;;4.15;3.72;;;13.30;99.90;;;;;;5088591;28;20286;-71
2021/05/23 04:06:51;;;;;;;3.53;3.22;;;13.30;99.90;;;;;;5091744;28;20205;-71
2021/05/23 04:09:18;;;;;;;4.13;3.80;;;13.30;99.90;;;;;;5090682;28;20197;-71
2021/05/23 04:11:47;;;;;;;4.05;3.75;;;13.40;99.90;;;;;;5101954;28;20200;-71
2021/05/23 04:14:13;;;;;;;4.25;3.90;;;13.30;99.90;;;;;;5091525;28;20217;-71
2021/05/23 04:16:40;;;;;;;3.55;3.20;;;13.30;99.90;;;;;;5094967;28;20224;-71
2021/05/23 04:19:07;;;;;;;3.33;3.03;;;13.30;99.90;;;;;;5098458;28;20795;-71
2021/05/23 04:21:34;;;;;;;3.10;2.90;;;13.30;99.90;;;;;;5110612;28;20203;-71
2021/05/23 04:24:00;;;;;;;3.88;3.58;;;13.30;99.90;;;;;;5102292;28;20198;-71
2021/05/23 04:26:27;;;;;;;4.18;3.88;;;13.30;99.90;;;;;;5093173;28;20206;-71
2021/05/23 04:28:53;;;;;;;3.78;3.42;;;13.30;99.90;;;;;;5094531;28;22597;-71
2021/05/23 04:31:19;;;;;;;3.60;3.30;;;13.30;99.90;;;;;;5091039;28;20193;-71
2021/05/23 04:33:46;;;;;;;4.43;4.00;;;13.30;99.90;;;;;;5090749;28;21214;-71
2021/05/23 04:36:12;;;;;;;3.00;2.75;;;13.30;99.90;;;;;;5090511;28;20205;-71
2021/05/23 04:38:39;;;;;;;3.38;3.08;;;13.30;99.90;;;;;;5091069;28;20217;-71
2021/05/23 04:41:05;;;;;;;4.13;3.58;;;13.30;99.90;;;;;;5091023;28;20197;-70
2021/05/23 04:43:31;;;;;;;2.60;2.40;;;13.20;99.90;;;;;;5088606;28;20205;-72
2021/05/23 04:45:57;;;;;;;3.83;3.50;;;13.20;99.90;;;;;;5089305;28;20215;-72
2021/05/23 04:48:23;;;;;;;3.45;3.20;;;13.20;99.90;;;;;;5091712;28;20212;-71
2021/05/23 04:50:50;;;;;;;4.13;3.30;;;13.20;99.90;;;;;;5103941;28;20208;-71
2021/05/23 04:53:16;;;;;;;3.13;2.78;;;13.20;99.90;;;;;;5101388;28;20201;-71
2021/05/23 04:55:43;;;;;;;4.10;3.40;;;13.20;99.90;;;;;;5098803;28;20246;-72
2021/05/23 04:58:09;;;;;;;3.28;2.75;;;13.20;99.90;;;;;;5090472;28;20237;-72
2021/05/23 05:00:35;;;;;;;3.38;3.08;;;13.20;99.90;;;;;;5090028;28;20233;-71
2021/05/23 05:03:01;;;;;;;3.15;2.92;;;13.20;99.90;;;;;;5089926;28;20288;-71
2021/05/23 05:05:28;;;;;;;3.30;3.00;;;13.20;99.90;;;;;;5095388;27;20246;-71
2021/05/23 05:07:55;;;;;;;2.75;2.55;;;13.20;99.90;;;;;;5095749;27;20198;-71
2021/05/23 05:10:21;;;;;;;3.45;3.15;;;13.20;99.90;;;;;;5092715;27;20208;-72
2021/05/23 05:12:47;;;;;;;6.10;4.55;;;13.20;99.90;;;;;;5093592;27;20536;-72
2021/05/23 05:15:14;;;;;;;3.38;3.08;;;13.20;99.90;;;;;;5090746;27;20201;-72
2021/05/23 05:17:40;;;;;;;3.92;3.53;;;13.10;99.90;;;;;;5091531;28;20263;-72
2021/05/23 05:20:09;;;;;;;3.65;3.35;;;13.10;99.90;;;;;;5100229;27;20216;-72
2021/05/23 05:22:36;;;;;;;4.28;3.97;;;13.10;99.90;;;;;;5113897;28;20565;-72
2021/05/23 05:25:04;;;;;;;4.47;4.13;;;13.10;99.90;;;;;;5106653;28;20755;-72
2021/05/23 05:27:30;;;;;;;3.88;3.47;;;13.10;99.90;;;;;;5086920;27;20200;-71
2021/05/23 05:29:56;;;;;;;4.10;3.78;;;13.20;99.90;;;;;;5092687;28;20470;-72
2021/05/23 05:32:23;;;;;;;4.03;3.72;;;13.20;99.90;;;;;;5090500;27;20239;-72
2021/05/23 05:34:49;;;;;;;3.03;2.83;;;13.20;99.90;;;;;;5092917;27;20222;-72
2021/05/23 05:37:15;;;;;;;3.53;3.22;;;13.20;99.90;;;;;;5093890;28;20246;-72
2021/05/23 05:39:43;;;;;;;3.50;3.20;;;13.20;99.90;;;;;;5096710;27;20212;-71
2021/05/23 05:42:10;;;;;;;5.28;4.30;;;13.20;99.90;;;;;;5092056;27;20193;-71
2021/05/23 05:44:36;;;;;;;3.85;3.53;;;13.20;99.90;;;;;;5092083;27;20197;-71
2021/05/23 05:47:02;;;;;;;4.00;3.70;;;13.20;99.90;;;;;;5089879;27;20190;-73
2021/05/23 05:49:28;;;;;;;3.55;3.25;;;13.20;99.90;;;;;;5095740;27;20200;-71
2021/05/23 05:51:55;;;;;;;6.47;4.22;;;13.10;99.90;;;;;;5109675;28;20193;-70
2021/05/23 05:54:21;;;;;;;3.53;3.22;;;13.10;99.90;;;;;;5108934;28;20257;-69
2021/05/23 05:56:47;;;;;;;4.18;3.88;;;13.10;99.90;;;;;;5092769;28;20207;-69
2021/05/23 05:59:14;;;;;;;4.22;3.85;;;13.10;99.90;;;;;;5092229;27;20680;-69
2021/05/23 06:01:42;;;;;;;3.90;3.60;;;13.10;99.90;;;;;;5095748;27;20204;-69
2021/05/23 06:04:08;;;;;;;4.53;4.13;;;13.10;99.90;;;;;;5092593;27;20200;-70
2021/05/23 06:06:34;;;;;;;4.38;4.03;;;13.10;99.90;;;;;;5099088;28;20545;-70
2021/05/23 06:09:00;;;;;;;4.25;3.80;;;13.10;99.90;;;;;;5102571;27;20196;-70
2021/05/23 06:11:27;;;;;;;5.60;5.10;;;13.10;99.90;;;;;;5096135;27;20202;-70
2021/05/23 06:13:53;;;;;;;3.72;3.42;;;13.10;99.90;;;;;;5092844;27;20673;-69
2021/05/23 06:16:20;;;;;;;4.78;4.45;;;13.10;99.90;;;;;;5103529;28;20197;-69
2021/05/23 06:18:46;;;;;;;4.35;4.03;;;13.10;99.90;;;;;;5091934;28;20225;-69
2021/05/23 06:21:12;;;;;;;6.30;5.72;;;13.20;99.90;;;;;;5104374;28;20201;-69
2021/05/23 06:23:39;;;;;;;5.18;4.78;;;13.20;99.90;;;;;;5109831;28;20208;-69
2021/05/23 06:26:05;;;;;;;6.75;6.22;;;13.20;99.90;;;;;;5112394;28;20253;-69
2021/05/23 06:28:31;;;;;;;6.70;5.95;;;13.20;99.90;;;;;;5107587;28;20189;-70
2021/05/23 06:30:58;;;;;;;5.40;4.90;;;13.20;99.90;;;;;;5097622;28;20253;-70
2021/05/23 06:33:25;;;;;;;6.00;5.50;;;13.10;99.90;;;;;;5111494;28;20249;-70
2021/05/23 06:35:51;;;;;;;8.23;7.43;;;13.10;99.90;;;;;;5112518;28;20549;-70
2021/05/23 06:38:17;;;;;;;6.15;5.65;;;13.20;99.90;;;;;;5105839;28;20205;-70
2021/05/23 06:40:43;;;;;;;6.65;5.95;;;13.20;99.90;;;;;;5112360;28;20224;-69
2021/05/23 06:43:09;;;;;;;5.82;5.30;;;13.20;99.90;;;;;;5094956;28;20677;-70
2021/05/23 06:45:35;;;;;;;5.25;4.78;;;13.20;99.90;;;;;;5090061;28;20197;-70
2021/05/23 06:48:02;;;;;;;4.70;4.35;;;13.20;99.90;;;;;;5099673;28;20185;-70
2021/05/23 06:50:29;;;;;;;5.65;5.15;;;13.20;99.90;;;;;;5101857;28;20194;-70
2021/05/23 06:52:55;;;;;;;4.00;3.70;;;13.20;99.90;;;;;;5111300;28;20204;-70
2021/05/23 06:55:21;;;;;;;3.95;3.65;;;13.20;99.90;;;;;;5112081;28;20525;-71
2021/05/23 06:57:48;;;;;;;5.00;4.60;;;13.10;99.90;;;;;;5097873;28;20228;-71
2021/05/23 07:00:15;;;;;;;4.88;3.70;;;13.20;99.90;;;;;;5094717;28;20224;-71
2021/05/23 07:02:41;;;;;;;4.95;4.55;;;13.10;99.90;;;;;;5091179;28;20198;-71
2021/05/23 07:05:08;;;;;;;5.45;4.38;;;13.20;99.90;;;;;;5102282;28;20201;-71
2021/05/23 07:07:35;;;;;;;4.88;4.05;;;13.10;99.90;;;;;;5091824;28;20193;-70
2021/05/23 07:10:02;;;;;;;3.50;3.20;;;13.10;99.90;;;;;;5109062;28;20200;-71
2021/05/23 07:12:28;;;;;;;4.88;4.50;;;13.10;99.90;;;;;;5111859;28;20587;-70
2021/05/23 07:14:55;;;;;;;3.80;3.40;;;13.20;99.90;;;;;;5096969;28;20201;-69
2021/05/23 07:17:21;;;;;;;3.45;3.25;;;13.10;99.90;;;;;;5110079;28;20231;-69
2021/05/23 07:19:47;;;;;;;5.13;3.30;;;13.20;99.90;;;;;;5098076;28;20213;-69
2021/05/23 07:22:13;;;;;;;3.63;3.33;;;13.10;99.90;;;;;;5108188;28;20242;-69
2021/05/23 07:24:40;;;;;;;3.15;2.90;;;13.20;99.90;;;;;;5111235;28;20197;-69
2021/05/23 07:27:06;;;;;;;3.33;3.03;;;13.10;99.90;;;;;;5104193;28;20197;-69
2021/05/23 07:29:33;;;;;;;2.75;2.55;;;13.20;99.90;;;;;;5090219;28;20197;-70
2021/05/23 07:31:59;;;;;;;2.75;2.55;;;13.20;99.90;;;;;;5096680;28;20202;-70
2021/05/23 07:34:25;;;;;;;3.15;2.85;;;13.20;99.90;;;;;;5099269;28;20198;-70
2021/05/23 07:36:51;;;;;;;2.90;2.70;;;13.20;99.90;;;;;;5090560;28;20681;-69
2021/05/23 07:39:18;;;;;;;2.60;2.40;;;13.20;99.90;;;;;;5090703;28;20217;-70
2021/05/23 07:41:45;;;;;;;2.72;2.53;;;13.20;99.90;;;;;;5090649;28;20211;-70
2021/05/23 07:44:11;;;;;;;2.80;2.50;;;13.20;99.90;;;;;;5090879;28;20691;-70
2021/05/23 07:46:37;;;;;;;2.90;2.70;;;13.20;99.90;;;;;;5090538;28;20208;-71
2021/05/23 07:49:03;;;;;;;4.10;3.22;;;13.30;99.90;;;;;;5091940;28;20193;-70
2021/05/23 07:51:29;;;;;;;3.92;2.90;;;13.30;99.90;;;;;;5096869;28;20250;-70
2021/05/23 07:53:56;;;;;;;3.15;2.95;;;13.30;99.90;;;;;;5097753;28;20201;-70
2021/05/23 07:56:22;;;;;;;3.63;3.03;;;13.20;99.90;;;;;;5111104;28;20633;-69
2021/05/23 07:58:49;;;;;;;4.40;3.03;;;13.20;99.90;;;;;;5099854;28;20677;-69
2021/05/23 08:01:15;;;;;;;3.20;2.90;;;13.20;99.90;;;;;;5101297;28;20197;-71
2021/05/23 08:03:41;;;;;;;4.53;3.45;;;13.20;99.90;;;;;;5093065;28;20815;-69
2021/05/23 08:06:08;;;;;;;5.97;2.55;;;13.20;99.90;;;;;;5090868;28;20608;-69
2021/05/23 08:08:35;;;;;;;3.10;2.80;;;13.10;99.90;;;;;;5096001;28;20189;-69
2021/05/23 08:11:01;;;;;;;2.60;2.40;;;13.20;99.90;;;;;;5091142;28;20243;-69
2021/05/23 08:13:27;;;;;;;2.95;2.22;;;13.20;99.90;;;;;;5091677;28;20809;-69
2021/05/23 08:15:56;;;;;;;5.55;2.45;;;13.20;99.90;;;;;;5090886;28;20209;-69
2021/05/23 08:18:28;;;;;;;3.80;3.28;;;13.30;99.90;;;;;;5090546;28;20212;-69
2021/05/23 08:20:56;;;;;;;4.03;3.00;;;13.20;99.90;;;;;;5088970;28;20737;-69
2021/05/23 08:23:23;;;;;;;4.18;2.60;;;13.20;99.90;;;;;;5090945;28;20201;-69
2021/05/23 08:25:49;;;;;;;3.50;2.20;;;13.20;99.90;;;;;;5110454;28;20522;-69
2021/05/23 08:28:15;;;;;;;2.17;1.98;;;13.30;99.90;;;;;;5109079;28;20204;-69
2021/05/23 08:30:41;;;;;;;7.18;2.90;;;13.40;99.90;;;;;;5091408;28;20193;-69
2021/05/23 08:33:10;;;;;;;2.50;2.10;;;13.50;99.90;;;;;;5092166;28;20211;-69
2021/05/23 08:35:37;;;;;;;3.65;2.20;;;13.50;99.90;;;;;;5091468;28;20201;-69
2021/05/23 08:38:03;;;;;;;3.42;2.13;;;13.50;99.90;;;;;;5092404;28;20204;-69
2021/05/23 08:40:30;;;;;;;3.80;2.42;;;13.50;99.90;;;;;;5090813;28;20213;-69
2021/05/23 08:42:56;;;;;;;4.38;1.90;;;13.50;99.90;;;;;;5094125;27;20218;-69
2021/05/23 08:45:22;;;;;;;4.05;2.20;;;13.70;99.90;;;;;;5095923;27;20200;-69
2021/05/23 08:47:51;;;;;;;2.70;2.35;;;13.70;99.90;;;;;;5093220;28;20265;-69
2021/05/23 08:50:20;;;;;;;4.13;2.20;;;13.70;99.90;;;;;;5095757;27;20930;-69
2021/05/23 08:52:53;;;;;;;3.47;2.35;;;13.70;99.90;;;;;;5094463;27;20203;-69
2021/05/23 08:55:20;;;;;;;2.80;2.20;;;13.80;99.90;;;;;;5112968;28;20200;-69
2021/05/23 08:57:47;;;;;;;1.77;1.50;;;13.80;99.90;;;;;;5112705;28;20224;-69
2021/05/23 09:00:14;;;;;;;2.95;1.90;;;13.70;99.90;;;;;;5112348;28;20208;-69
2021/05/23 09:02:54;;;;;;;3.55;2.00;;;13.80;99.90;;;;;;5114503;28;20201;-69
2021/05/23 09:05:29;;;;;;;2.60;1.88;;;13.70;99.90;;;;;;5113982;28;20204;-69
2021/05/23 09:07:56;;;;;;;3.05;1.70;;;13.70;99.90;;;;;;5112978;28;20688;-69
2021/05/23 09:10:23;;;;;;;5.18;1.85;;;13.80;99.90;;;;;;5113903;28;20567;-69
2021/05/23 09:12:50;;;;;;;4.00;1.90;;;13.80;99.90;;;;;;5109573;27;20216;-69
2021/05/23 09:15:16;;;;;;;5.50;2.05;;;14.00;99.90;;;;;;5120734;27;20813;-69
2021/05/23 09:17:43;;;;;;;2.15;1.55;;;14.10;99.90;;;;;;5093088;28;20197;-68
2021/05/23 09:20:17;;;;;;;4.03;2.35;;;14.20;99.90;;;;;;5107688;28;20216;-69
2021/05/23 09:22:50;;;;;;;4.03;1.77;;;14.30;99.90;;;;;;5107821;28;20201;-69
2021/05/23 09:25:27;;;;;;;4.00;2.05;;;14.40;99.90;;;;;;5093378;28;20212;-69
2021/05/23 09:27:53;;;;;;;3.75;1.55;;;14.40;99.90;;;;;;5093425;28;20189;-69
2021/05/23 09:30:22;;;;;;;6.03;1.90;;;14.50;99.90;;;;;;5093274;28;20220;-69
2021/05/23 09:32:51;;;;;;;3.22;1.40;;;14.50;99.90;;;;;;5096631;28;20193;-69
2021/05/23 09:35:17;;;;;;;2.67;1.50;;;14.60;99.90;;;;;;5112633;28;20224;-69
2021/05/23 09:37:56;;;;;;;1.83;1.38;;;14.60;99.90;;;;;;5110426;28;20197;-69
2021/05/23 09:40:24;;;;;;;1.92;1.60;;;14.50;99.90;;;;;;5109622;28;20201;-69
2021/05/23 09:42:52;;;;;;;2.70;1.50;;;14.50;99.90;;;;;;5093709;28;20581;-69
2021/05/23 09:45:19;;;;;;;3.95;1.40;;;14.50;99.90;;;;;;5093882;28;20208;-69
2021/05/23 09:47:50;;;;;;;2.33;1.25;;;14.40;99.90;;;;;;5104076;28;20554;-69
2021/05/23 09:50:17;;;;;;;4.55;2.50;;;14.50;99.90;;;;;;5106181;28;20204;-69
2021/05/23 09:52:43;;;;;;;2.60;1.20;;;14.50;99.90;;;;;;5102279;28;20193;-69
2021/05/23 09:55:11;;;;;;;3.85;1.42;;;14.50;99.90;;;;;;5114198;28;20197;-69
2021/05/23 09:57:38;;;;;;;4.05;1.40;;;14.60;99.90;;;;;;5113983;28;20236;-70
2021/05/23 10:00:06;;;;;;;2.83;2.60;;;14.60;99.90;;;;;;5098903;28;20216;-70
2021/05/23 10:02:33;;;;;;;2.08;1.00;;;14.60;99.90;;;;;;5093748;28;20354;-70
2021/05/23 10:05:04;;;;;;;1.77;1.45;;;14.60;99.90;;;;;;5097253;28;20193;-69
2021/05/23 10:07:34;;;;;;;6.03;1.40;;;14.70;99.90;;;;;;5113673;28;20637;-69
2021/05/23 10:10:00;;;;;;;2.97;1.00;;;14.80;99.90;;;;;;5113722;28;20224;-70
2021/05/23 10:12:28;;;;;;;2.67;1.20;;;14.80;99.90;;;;;;5110653;28;20832;-69
2021/05/23 10:14:54;;;;;;;1.67;1.25;;;14.80;99.90;;;;;;5093322;28;20205;-70
2021/05/23 10:17:21;;;;;;;3.28;1.20;;;14.80;99.90;;;;;;5111119;28;20201;-70
2021/05/23 10:19:48;;;;;;;1.73;1.10;;;14.80;99.90;;;;;;5112056;28;20212;-70
2021/05/23 10:22:15;;;;;;;5.55;1.67;;;14.80;99.90;;;;;;5113187;28;20185;-70
2021/05/23 10:24:45;;;;;;;2.58;1.40;;;14.80;99.90;;;;;;5113063;28;20204;-70
2021/05/23 10:27:14;;;;;;;9.95;2.13;;;14.80;99.90;;;;;;5107950;28;20216;-70
2021/05/23 10:29:44;;;;;;;2.70;1.02;;;14.80;99.90;;;;;;5113341;28;20185;-70
2021/05/23 10:32:13;;;;;;;2.95;1.50;;;14.90;99.90;;;;;;5113004;28;20537;-70
2021/05/23 10:34:42;;;;;;;3.55;1.20;;;14.90;99.90;;;;;;5112997;28;20301;-70
2021/05/23 10:37:08;;;;;;;3.58;1.42;;;14.90;99.90;;;;;;5102548;28;20199;-70
2021/05/23 10:39:40;;;;;;;2.63;1.25;;;14.80;99.90;;;;;;5105326;27;20223;-70
2021/05/23 10:42:07;;;;;;;2.67;1.40;;;14.80;99.90;;;;;;5115798;27;20193;-70
2021/05/23 10:44:43;;;;;;;2.03;1.25;;;14.80;99.90;;;;;;5099195;28;20625;-70
2021/05/23 10:47:10;;;;;;;2.50;1.23;;;14.80;99.90;;;;;;5113200;28;20195;-71
2021/05/23 10:49:40;;;;;;;3.35;1.42;;;14.70;99.90;;;;;;5098387;28;20315;-71
2021/05/23 10:52:16;;;;;;;2.50;1.75;;;14.70;99.90;;;;;;5110083;28;20200;-71
2021/05/23 10:54:53;;;;;;;2.38;1.20;;;14.70;99.90;;;;;;5108883;28;20196;-71
2021/05/23 10:57:20;;;;;;;5.75;1.30;;;14.60;99.90;;;;;;5105252;28;20217;-71
2021/05/23 10:59:57;;;;;;;1.50;1.10;;;14.60;99.90;;;;;;5092473;28;20283;-71
2021/05/23 11:02:34;;;;;;;5.95;1.40;;;14.50;99.90;;;;;;5089129;28;20190;-82
2021/05/23 11:05:00;;;;;;;1.92;1.40;;;14.60;99.90;;;;;;5076344;28;20197;-69
2021/05/23 11:07:27;;;;;;;2.75;1.35;;;14.70;99.90;;;;;;5095889;28;20204;-69
2021/05/23 11:09:53;;;;;;;2.17;1.02;;;14.70;99.90;;;;;;5087896;28;20193;-69
2021/05/23 11:12:19;;;;;;;2.70;1.10;;;14.70;99.90;;;;;;5091652;28;20212;-69
2021/05/23 11:14:54;;;;;;;2.08;1.30;;;14.70;99.90;;;;;;5089307;28;20229;-69
2021/05/23 11:17:21;;;;;;;1.60;1.25;;;14.70;99.90;;;;;;5086960;28;20188;-69
2021/05/23 11:19:47;;;;;;;4.70;1.63;;;14.80;99.90;;;;;;5092059;28;20283;-69
2021/05/23 11:22:14;;;;;;;1.80;1.10;;;14.80;99.90;;;;;;5091828;28;20535;-69
2021/05/23 11:24:45;;;;;;;2.30;1.20;;;14.70;99.90;;;;;;5090791;28;20198;-69
2021/05/23 11:27:13;;;;;;;2.15;0.90;;;14.70;99.90;;;;;;5091582;28;20692;-70
2021/05/23 11:29:44;;;;;;;2.35;1.10;;;14.80;99.90;;;;;;5092410;28;20276;-70
2021/05/23 11:32:15;;;;;;;5.65;1.58;;;14.90;99.90;;;;;;5091896;28;20685;-70
2021/05/23 11:34:41;;;;;;;1.30;0.98;;;14.90;99.90;;;;;;5083828;28;20205;-70
2021/05/23 11:37:07;;;;;;;2.30;1.40;;;15.00;99.90;;;;;;5090916;28;20541;-69
2021/05/23 11:39:34;;;;;;;4.57;1.25;;;15.00;99.90;;;;;;5090905;28;20220;-69
2021/05/23 11:42:02;;;;;;;3.58;0.95;;;15.00;99.90;;;;;;5085987;28;20220;-68
2021/05/23 11:44:36;;;;;;;2.40;1.10;;;15.10;99.90;;;;;;5086110;28;20197;-69
2021/05/23 11:47:02;;;;;;;3.60;1.27;;;15.00;99.90;;;;;;5085202;28;20206;-70
2021/05/23 11:49:30;;;;;;;2.55;1.33;;;15.00;99.90;;;;;;5084805;28;20194;-70
2021/05/23 11:52:01;;;;;;;3.20;1.00;;;15.00;99.90;;;;;;5089637;28;20201;-70
2021/05/23 11:54:28;;;;;;;3.40;1.95;;;15.00;99.90;;;;;;5091048;28;20197;-70
2021/05/23 11:56:54;;;;;;;2.03;1.05;;;15.10;99.90;;;;;;5090538;28;20194;-69
2021/05/23 11:59:21;;;;;;;2.13;0.95;;;15.00;99.90;;;;;;5089961;28;20799;-70
2021/05/23 12:01:48;;;;;;;2.78;1.05;;;15.10;99.90;;;;;;5091379;28;20362;-70
2021/05/23 12:04:16;;;;;;;3.28;1.10;;;15.10;99.90;;;;;;5085030;28;20277;-70
2021/05/23 12:06:48;;;;;;;5.90;1.10;;;15.20;99.90;;;;;;5089909;28;20193;-70
2021/05/23 12:09:15;;;;;;;2.33;1.08;;;15.10;99.90;;;;;;5088720;28;20255;-70
2021/05/23 12:11:45;;;;;;;2.03;1.00;;;15.10;99.90;;;;;;5090571;28;20201;-70
2021/05/23 12:14:25;;;;;;;1.85;0.90;;;15.10;99.90;;;;;;5091822;28;20205;-69
2021/05/23 12:17:04;;;;;;;2.38;1.25;;;15.10;99.90;;;;;;5084029;28;20542;-69
2021/05/23 12:19:47;;;;;;;3.67;1.40;;;15.20;99.90;;;;;;5081972;28;20204;-69
2021/05/23 12:22:16;;;;;;;3.03;1.40;;;15.20;99.90;;;;;;5091368;28;20193;-69
2021/05/23 12:24:43;;;;;;;2.97;1.23;;;15.20;99.90;;;;;;5089150;28;20640;-71
2021/05/23 12:27:14;;;;;;;2.10;1.05;;;15.30;99.90;;;;;;5094129;28;20193;-69
2021/05/23 12:29:40;;;;;;;2.78;1.10;;;15.30;99.90;;;;;;5082235;28;20231;-70
2021/05/23 12:32:07;;;;;;;1.20;1.10;;;15.30;99.90;;;;;;5073700;28;20209;-70
2021/05/23 12:34:33;;;;;;;1.50;1.00;;;15.30;99.90;;;;;;5088166;28;20258;-69
2021/05/23 12:37:00;;;;;;;3.75;1.20;;;15.30;99.90;;;;;;5092246;28;20209;-69
2021/05/23 12:39:27;;;;;;;2.05;1.08;;;15.30;99.90;;;;;;5093281;28;20225;-69
2021/05/23 12:41:54;;;;;;;4.40;1.30;;;15.30;99.90;;;;;;5085968;28;20217;-69
2021/05/23 12:44:23;;;;;;;6.05;1.73;;;15.40;99.90;;;;;;5089554;28;20197;-69
2021/05/23 12:46:51;;;;;;;3.25;0.93;;;15.40;99.90;;;;;;5092884;28;20204;-69
2021/05/23 12:49:18;;;;;;;2.28;1.15;;;15.40;99.90;;;;;;5088277;28;20224;-69
2021/05/23 12:51:45;;;;;;;1.60;1.30;;;15.40;99.90;;;;;;5092673;28;20189;-69